createdAt,value
2018-09-30T00:01:20.835Z,9.70
2018-09-30T00:05:23.179Z,9.70
2018-09-30T00:09:28.364Z,9.90
2018-09-30T00:13:30.659Z,9.80
2018-09-30T00:17:33.082Z,10.00
2018-09-30T00:21:35.372Z,10.00
2018-09-30T00:26:41.160Z,9.70
2018-09-30T00:30:43.527Z,9.40
2018-09-30T00:34:45.826Z,9.70
2018-09-30T00:38:48.497Z,9.80
2018-09-30T00:42:50.817Z,9.60
2018-09-30T00:46:53.590Z,9.50
2018-09-30T00:50:55.862Z,9.40
2018-09-30T00:54:58.157Z,9.30
2018-09-30T00:59:00.446Z,9.30
2018-09-30T01:03:02.746Z,9.40
2018-09-30T01:07:05.365Z,9.20
2018-09-30T01:11:07.733Z,8.80
2018-09-30T01:15:10.057Z,8.70
2018-09-30T01:19:12.355Z,9.10
2018-09-30T01:23:14.620Z,9.10
2018-09-30T01:27:16.965Z,8.80
2018-09-30T01:31:19.276Z,8.80
2018-09-30T01:35:21.557Z,9.30
2018-09-30T01:39:23.851Z,9.30
2018-09-30T01:43:26.293Z,9.30
2018-09-30T01:47:28.565Z,9.20
2018-09-30T01:51:30.838Z,8.20
2018-09-30T01:55:33.166Z,8.70
2018-09-30T01:59:35.406Z,8.90
2018-09-30T02:03:37.730Z,8.90
2018-09-30T02:07:39.991Z,8.80
2018-09-30T02:11:42.290Z,8.70
2018-09-30T02:15:44.656Z,8.60
2018-09-30T02:19:46.965Z,8.70
2018-09-30T02:23:49.236Z,8.50
2018-09-30T02:27:51.508Z,8.30
2018-09-30T02:31:53.782Z,8.40
2018-09-30T02:35:56.090Z,8.20
2018-09-30T02:39:58.370Z,8.30
2018-09-30T02:44:00.627Z,8.30
2018-09-30T02:48:02.937Z,8.20
2018-09-30T02:52:05.265Z,8.10
2018-09-30T02:56:07.524Z,8.30
2018-09-30T03:00:10.006Z,8.20
2018-09-30T03:04:12.287Z,8.00
2018-09-30T03:08:20.221Z,8.20
2018-09-30T03:12:22.478Z,8.00
2018-09-30T03:16:24.764Z,8.00
2018-09-30T03:20:27.149Z,7.90
2018-09-30T03:24:29.396Z,7.80
2018-09-30T03:28:31.658Z,7.50
2018-09-30T03:32:33.995Z,7.80
2018-09-30T03:36:36.309Z,7.60
2018-09-30T03:40:38.641Z,7.00
2018-09-30T03:44:40.950Z,7.50
2018-09-30T03:48:43.234Z,7.90
2018-09-30T03:52:45.573Z,8.10
2018-09-30T03:56:47.928Z,7.10
2018-09-30T04:00:50.378Z,7.60
2018-09-30T04:04:52.608Z,7.80
2018-09-30T04:08:54.853Z,7.50
2018-09-30T04:12:57.377Z,7.60
2018-09-30T04:16:59.739Z,7.60
2018-09-30T04:21:02.011Z,7.50
2018-09-30T04:25:04.545Z,7.60
2018-09-30T04:29:06.914Z,7.30
2018-09-30T04:33:09.218Z,7.10
2018-09-30T04:37:11.460Z,6.00
2018-09-30T04:41:13.789Z,7.00
2018-09-30T04:45:16.038Z,7.10
2018-09-30T04:49:18.283Z,7.30
2018-09-30T04:53:20.499Z,7.40
2018-09-30T04:57:22.754Z,7.10
2018-09-30T05:01:25.025Z,7.20
2018-09-30T05:05:27.378Z,7.00
2018-09-30T05:09:29.703Z,7.30
2018-09-30T05:13:32.103Z,7.20
2018-09-30T05:17:34.384Z,7.40
2018-09-30T05:21:36.639Z,7.50
2018-09-30T05:25:39.163Z,7.20
2018-09-30T05:29:41.518Z,7.10
2018-09-30T05:33:43.764Z,6.80
2018-09-30T05:37:46.047Z,6.80
2018-09-30T05:41:48.314Z,7.00
2018-09-30T05:45:50.678Z,7.10
2018-09-30T05:49:52.973Z,6.70
2018-09-30T05:53:55.520Z,7.00
2018-09-30T05:57:58.148Z,7.20
2018-09-30T06:02:00.418Z,7.40
2018-09-30T06:06:02.701Z,7.50
2018-09-30T06:10:05.043Z,7.00
2018-09-30T06:14:07.919Z,7.00
2018-09-30T06:18:10.147Z,7.30
2018-09-30T06:22:12.483Z,6.80
2018-09-30T06:26:14.789Z,7.70
2018-09-30T06:30:17.165Z,8.20
2018-09-30T06:34:19.462Z,9.00
2018-09-30T06:38:21.763Z,9.70
2018-09-30T06:42:24.046Z,10.00
2018-09-30T06:46:26.343Z,10.50
2018-09-30T06:50:28.685Z,10.60
2018-09-30T06:54:31.330Z,10.80
2018-09-30T06:58:33.983Z,11.00
2018-09-30T07:02:36.373Z,11.60
2018-09-30T07:10:51.128Z,13.10
2018-09-30T07:14:53.452Z,13.60
2018-09-30T07:18:55.882Z,14.00
2018-09-30T07:22:58.257Z,14.20
2018-09-30T07:27:00.588Z,14.50
2018-09-30T07:31:02.903Z,14.50
2018-09-30T07:35:05.212Z,14.80
2018-09-30T07:39:08.422Z,14.80
2018-09-30T07:43:10.793Z,15.10
2018-09-30T07:47:13.079Z,14.80
2018-09-30T07:51:15.528Z,15.00
2018-09-30T07:55:17.987Z,14.90
2018-09-30T07:59:20.502Z,14.80
2018-09-30T08:03:22.842Z,15.10
2018-09-30T08:07:25.154Z,15.10
2018-09-30T08:11:27.463Z,14.90
2018-09-30T08:15:29.789Z,14.80
2018-09-30T08:19:35.423Z,14.90
2018-09-30T08:23:37.762Z,16.00
2018-09-30T08:27:40.124Z,16.10
2018-09-30T08:31:42.426Z,13.70
2018-09-30T08:35:49.400Z,14.80
2018-09-30T08:39:51.862Z,14.80
2018-09-30T08:43:54.219Z,14.20
2018-09-30T08:47:56.666Z,13.50
2018-09-30T08:51:59.054Z,13.70
2018-09-30T08:56:01.443Z,14.40
2018-09-30T09:00:03.904Z,15.60
2018-09-30T09:04:06.298Z,15.40
2018-09-30T09:08:08.668Z,16.70
2018-09-30T09:12:11.018Z,15.90
2018-09-30T09:16:13.333Z,17.30
2018-09-30T09:20:15.701Z,17.00
2018-09-30T09:24:17.974Z,17.00
2018-09-30T09:28:20.304Z,17.50
2018-09-30T09:32:22.628Z,17.80
2018-09-30T09:36:25.782Z,18.30
2018-09-30T09:40:28.234Z,18.50
2018-09-30T09:44:30.571Z,18.80
2018-09-30T09:48:32.880Z,19.10
2018-09-30T09:52:36.801Z,18.50
2018-09-30T09:56:39.066Z,18.30
2018-09-30T10:00:44.400Z,15.30
2018-09-30T10:04:46.716Z,17.90
2018-09-30T10:08:49.048Z,18.00
2018-09-30T10:12:51.365Z,17.90
2018-09-30T10:16:53.758Z,16.70
2018-09-30T10:20:57.338Z,17.80
2018-09-30T10:24:59.648Z,18.40
2018-09-30T10:29:02.363Z,19.60
2018-09-30T10:33:04.803Z,19.80
2018-09-30T10:37:07.505Z,20.00
2018-09-30T10:41:11.705Z,20.80
2018-09-30T10:45:14.013Z,19.60
2018-09-30T10:49:18.479Z,20.30
2018-09-30T10:53:20.832Z,19.70
2018-09-30T10:57:23.371Z,21.10
2018-09-30T11:01:26.943Z,20.80
2018-09-30T11:05:30.757Z,19.20
2018-09-30T11:09:33.128Z,20.30
2018-09-30T11:13:35.555Z,21.00
2018-09-30T11:17:38.043Z,20.90
2018-09-30T11:21:43.949Z,20.90
2018-09-30T11:25:47.263Z,21.70
2018-09-30T11:29:52.136Z,22.60
2018-09-30T11:33:54.731Z,23.00
2018-09-30T11:37:57.146Z,23.40
2018-09-30T11:41:59.511Z,22.90
2018-09-30T11:46:02.073Z,22.80
2018-09-30T11:50:05.716Z,23.10
2018-09-30T11:54:08.978Z,24.00
2018-09-30T11:58:11.447Z,20.90
2018-09-30T12:02:13.910Z,20.90
2018-09-30T12:06:16.348Z,22.40
2018-09-30T12:10:18.752Z,22.50
2018-09-30T12:14:21.035Z,23.50
2018-09-30T12:18:23.383Z,24.50
2018-09-30T12:22:25.764Z,24.70
2018-09-30T12:26:28.092Z,24.00
2018-09-30T12:30:30.507Z,24.30
2018-09-30T12:34:32.892Z,24.40
2018-09-30T12:38:35.201Z,23.30
2018-09-30T12:42:37.491Z,23.60
2018-09-30T12:46:39.954Z,22.80
2018-09-30T12:50:42.287Z,23.60
2018-09-30T12:54:44.670Z,23.60
2018-09-30T12:58:46.989Z,23.50
2018-09-30T13:02:49.396Z,22.60
2018-09-30T13:06:51.884Z,24.80
2018-09-30T13:10:54.220Z,25.00
2018-09-30T13:14:57.244Z,26.20
2018-09-30T13:18:59.559Z,25.60
2018-09-30T13:23:01.906Z,25.80
2018-09-30T13:27:04.294Z,22.80
2018-09-30T13:31:06.956Z,23.00
2018-09-30T13:35:09.298Z,23.90
2018-09-30T13:39:11.716Z,23.50
2018-09-30T13:43:14.048Z,23.10
2018-09-30T13:47:16.489Z,22.40
2018-09-30T13:51:19.173Z,23.60
2018-09-30T13:55:21.715Z,21.80
2018-09-30T13:59:24.354Z,23.00
2018-09-30T14:03:26.804Z,23.40
2018-09-30T14:07:29.330Z,23.80
2018-09-30T14:11:32.144Z,22.30
2018-09-30T14:15:34.514Z,22.90
2018-09-30T14:19:36.852Z,23.70
2018-09-30T14:23:39.185Z,25.30
2018-09-30T14:27:41.560Z,26.00
2018-09-30T14:31:43.883Z,25.90
2018-09-30T14:35:46.890Z,25.60
2018-09-30T14:39:49.558Z,24.80
2018-09-30T14:43:52.144Z,24.20
2018-09-30T14:47:54.555Z,23.40
2018-09-30T14:51:56.910Z,23.20
2018-09-30T14:55:59.333Z,23.10
2018-09-30T15:00:01.698Z,23.30
2018-09-30T15:04:04.206Z,23.90
2018-09-30T15:08:06.546Z,23.50
2018-09-30T15:12:09.121Z,23.20
2018-09-30T15:16:11.620Z,23.30
2018-09-30T15:20:14.244Z,22.70
2018-09-30T15:24:16.743Z,23.40
2018-09-30T15:28:19.199Z,23.50
2018-09-30T15:32:21.570Z,23.30
2018-09-30T15:36:24.014Z,23.10
2018-09-30T15:40:26.546Z,22.60
2018-09-30T15:44:28.973Z,22.30
2018-09-30T15:48:31.371Z,22.60
2018-09-30T15:52:33.712Z,22.40
2018-09-30T15:56:36.230Z,22.50
2018-09-30T16:00:38.712Z,22.50
2018-09-30T16:04:41.205Z,21.90
2018-09-30T16:08:43.556Z,21.40
2018-09-30T16:12:45.965Z,21.90
2018-09-30T16:16:48.426Z,22.20
2018-09-30T16:20:50.842Z,21.60
2018-09-30T16:24:53.196Z,22.00
2018-09-30T16:28:55.514Z,21.60
2018-09-30T16:32:57.880Z,21.20
2018-09-30T16:37:00.238Z,20.80
2018-09-30T16:41:02.625Z,20.20
2018-09-30T16:45:05.019Z,19.70
2018-09-30T16:49:07.332Z,19.20
2018-09-30T16:53:09.740Z,19.70
2018-09-30T16:57:12.095Z,20.30
2018-09-30T17:01:14.575Z,20.10
2018-09-30T17:05:16.977Z,20.00
2018-09-30T17:09:19.337Z,20.20
2018-09-30T17:13:21.774Z,20.20
2018-09-30T17:17:24.140Z,19.90
2018-09-30T17:21:26.652Z,19.40
2018-09-30T17:25:29.153Z,19.00
2018-09-30T17:29:31.515Z,19.00
2018-09-30T17:33:33.883Z,18.60
2018-09-30T17:37:36.289Z,18.40
2018-09-30T17:41:38.614Z,18.20
2018-09-30T17:45:41.014Z,18.10
2018-09-30T17:49:43.364Z,18.00
2018-09-30T17:53:46.103Z,18.00
2018-09-30T17:57:48.530Z,17.70
2018-09-30T18:01:50.893Z,17.50
2018-09-30T18:05:53.560Z,17.30
2018-09-30T18:09:55.960Z,17.10
2018-09-30T18:13:58.291Z,16.90
2018-09-30T18:18:01.935Z,16.70
2018-09-30T18:22:04.359Z,16.20
2018-09-30T18:26:06.743Z,16.30
2018-09-30T18:30:09.633Z,16.00
2018-09-30T18:34:11.995Z,15.80
2018-09-30T18:38:14.358Z,15.60
2018-09-30T18:42:16.739Z,15.30
2018-09-30T18:46:19.485Z,15.60
2018-09-30T18:50:22.588Z,15.60
2018-09-30T18:54:25.313Z,15.50
2018-09-30T18:58:27.961Z,15.30
2018-09-30T19:02:30.732Z,14.80
2018-09-30T19:06:33.685Z,14.70
2018-09-30T19:10:36.382Z,14.90
2018-09-30T19:14:39.132Z,15.10
2018-09-30T19:18:41.930Z,14.90
2018-09-30T19:22:44.736Z,14.60
2018-09-30T19:26:47.218Z,13.20
2018-09-30T19:30:49.774Z,13.40
2018-09-30T19:34:52.204Z,13.60
2018-09-30T19:38:54.583Z,14.00
2018-09-30T19:42:56.963Z,14.40
2018-09-30T19:46:59.385Z,14.30
2018-09-30T19:51:01.729Z,14.20
2018-09-30T19:55:04.568Z,14.20
2018-09-30T19:59:06.967Z,14.00
2018-09-30T20:03:09.607Z,13.60
2018-09-30T20:07:12.118Z,13.80
2018-09-30T20:11:14.588Z,13.70
2018-09-30T20:15:17.023Z,13.20
2018-09-30T20:19:19.467Z,13.40
2018-09-30T20:23:22.100Z,13.30
2018-09-30T20:27:24.469Z,13.40
2018-09-30T20:31:26.829Z,13.40
2018-09-30T20:35:29.179Z,13.50
2018-09-30T20:39:31.528Z,13.80
2018-09-30T20:43:33.855Z,13.70
2018-09-30T20:47:36.198Z,14.00
2018-09-30T20:51:38.504Z,13.90
2018-09-30T20:55:40.888Z,13.60
2018-09-30T20:59:43.221Z,13.80
2018-09-30T21:03:51.301Z,13.70
2018-09-30T21:07:56.149Z,14.20
2018-09-30T21:11:59.702Z,13.60
2018-09-30T21:16:07.573Z,13.40
2018-09-30T21:20:16.927Z,13.50
2018-09-30T21:24:21.072Z,13.70
2018-09-30T21:28:23.479Z,13.80
2018-09-30T21:32:25.835Z,14.20
2018-09-30T21:36:28.221Z,14.10
2018-09-30T21:40:30.558Z,13.90
2018-09-30T21:44:33.032Z,13.50
2018-09-30T21:48:35.441Z,13.00
2018-09-30T21:52:37.877Z,13.30
2018-09-30T21:56:40.266Z,13.60
2018-09-30T22:00:44.065Z,13.90
2018-09-30T22:04:46.445Z,12.80
2018-09-30T22:08:48.782Z,13.20
2018-09-30T22:12:51.162Z,13.40
2018-09-30T22:16:53.671Z,13.20
2018-09-30T22:20:55.983Z,13.20
2018-09-30T22:24:58.308Z,12.60
2018-09-30T22:29:00.601Z,12.30
2018-09-30T22:33:03.347Z,12.40
2018-09-30T22:37:05.677Z,11.90
2018-09-30T22:41:07.966Z,12.40
2018-09-30T22:45:10.351Z,12.20
2018-09-30T22:49:12.645Z,11.90
2018-09-30T22:53:14.903Z,11.20
2018-09-30T22:57:17.182Z,11.20
2018-09-30T23:01:19.458Z,10.90
2018-09-30T23:05:21.839Z,10.30
2018-09-30T23:09:24.147Z,10.70
2018-09-30T23:13:26.400Z,10.90
2018-09-30T23:17:28.730Z,11.40
2018-09-30T23:21:31.175Z,10.70
2018-09-30T23:25:33.499Z,10.60
2018-09-30T23:29:35.801Z,10.90
2018-09-30T23:33:38.097Z,11.00
2018-09-30T23:37:40.439Z,10.90
2018-09-30T23:41:42.731Z,10.60
2018-09-30T23:45:45.156Z,10.10
2018-09-30T23:49:49.174Z,9.50
2018-09-30T23:53:51.541Z,9.40
2018-09-30T23:58:04.245Z,10.30
